Station: Mackay Airport  

  Atmospheric Gas Attenuation - ITU Rec 676-11   ----------------- dB/100km -----------------
Date Time Temp RH % AH g/m3 Dew Point Wind Direction Speed kph Gust kph Barometer mB Rainfall Since 9am 24GHz 47GHz 76GHz 122GHz 134GHz 241GHz
08/05 12:30 25.5 47 11.13 13.4 19 28 1017.3 0 24.3 26.6 43.7 114.9 115.0 398.1
08/05 12:20 25.6 41 9.76 11.4 20 24 1017.5 0 21.4 24.5 38.6 101.4 98.4 340.1
08/05 12:10 25.3 39 9.13 10.4 15 17 1017.6 0 20.1 23.7 36.5 95.8 91.5 315.6
08/05 12:00 25.3 39 9.13 10.4 20 28 1017.8 0 20.1 23.7 36.5 95.9 91.5 315.6
08/05 11:50 25.1 39 9.03 10.2 26 28 1018 0 19.9 23.6 36.3 95.2 90.6 312.4
08/05 11:40 24.4 39 8.68 9.6 19 22 1018.1 0 19.3 23.3 35.4 92.7 87.3 300.9
08/05 11:30 24.1 41 8.97 10 19 24 1018.5 0 19.9 23.8 36.5 95.8 91.0 314.0
08/05 11:20 24.3 45 9.96 11.6 19 20 1018.7 0 21.9 25.2 40.0 105.1 102.6 354.3
08/05 11:10 23.5 43 9.09 10.2 22 24 1018.8 0 20.1 24.2 37.3 97.7 93.2 321.3
08/05 11:00 23.4 45 9.46 10.8 17 24 1018.9 0 20.9 24.7 38.6 101.4 97.7 337.2
08/05 10:50 23.3 46 9.62 11 20 22 1018.9 0 21.3 25.0 39.3 103.1 99.8 344.4
08/05 10:40 22.7 46 9.29 10.5 20 20 1019 0 20.6 24.7 38.4 100.7 96.5 333.0
08/05 10:30 22.7 47 9.5 10.8 20 20 1019.1 0 21.0 25.0 39.1 102.7 99.1 341.9
08/05 10:20 22.7 46 9.29 10.5 19 22 1019.2 0 20.6 24.7 38.4 100.7 96.5 333.0
08/05 10:10 22.3 45 8.89 9.8 20 24 1019.3 0 19.8 24.2 37.1 97.3 92.2 317.9
08/05 10:00 22.6 46 9.24 10.4 20 26 1019.2 0 20.5 24.6 38.2 100.3 96.1 331.3
08/05 09:50 22.1 46 8.98 9.9 20 22 1019.2 0 20.0 24.4 37.5 98.4 93.5 322.4
08/05 09:40 21.7 45 8.58 9.3 22 26 1019.2 0 19.2 23.9 36.2 95.0 89.2 307.2
08/05 09:30 21.7 46 8.77 9.6 20 26 1019.4 0 19.6 24.2 36.9 96.8 91.5 315.2
08/05 09:20 21.5 47 8.86 9.7 22 26 1019.4 0 19.8 24.4 37.4 98.0 92.8 319.8
08/05 09:10 21.2 47 8.71 9.4 20 24 1019.3 0 19.5 24.2 36.9 96.9 91.3 314.6
08/05 09:00 21.2 46 8.52 9.1 17 26 1019.2 0 19.1 23.9 36.2 95.0 89.0 306.6
08/05 08:50 20.8 49 8.87 9.7 19 24 1019.1 0 19.8 24.6 37.7 98.9 93.7 322.9
08/05 08:40 20.5 50 8.9 9.7 19 22 1019 0 19.9 24.7 38.0 99.5 94.4 325.4
08/05 08:30 20.2 54 9.44 10.6 15 20 1018.9 0 21.0 25.6 40.1 105.3 101.5 350.0
08/05 08:20 19.8 56 9.56 10.8 13 15 1018.9 0 21.3 25.9 40.8 107.1 103.5 357.1
08/05 08:10 19.4 60 10.01 11.4 11 13 1018.9 0 22.3 26.7 42.7 112.3 109.8 379.1
08/05 08:00 19.4 58 9.68 10.9 13 19 1018.7 0 21.6 26.2 41.4 108.9 105.5 364.2
08/05 07:50 19.3 60 9.95 11.3 13 15 1018.6 0 22.2 26.6 42.5 111.8 109.1 376.7
08/05 07:40 19.2 59 9.73 11 17 20 1018.5 0 21.7 26.3 41.7 109.6 106.4 367.3
08/05 07:30 19.2 60 9.89 11.3 13 22 1018.5 0 22.1 26.6 42.4 111.3 108.5 374.5
08/05 07:20 19.1 63 10.33 11.9 11 13 1018.4 0 23.0 27.3 44.2 116.1 114.3 394.9
08/05 07:10 18.4 65 10.22 11.7 9 13 1018.3 0 22.8 27.3 44.1 115.9 113.9 393.3
08/05 07:00 18.3 68 10.63 12.3 7 9 1018.1 0 23.7 28.0 45.8 120.5 119.5 412.8
08/05 06:50 17.6 70 10.5 12.1 7 7 1017.9 0 23.4 28.0 45.7 120.1 118.8 410.3
08/05 06:40 17.3 70 10.31 11.8 7 7 1017.7 0 23.0 27.8 45.1 118.4 116.7 402.9
08/05 06:30 16.8 74 10.58 12.1 9 11 1017.5 0 23.7 28.4 46.4 122.2 121.1 418.2
08/05 06:20 16.8 74 10.58 12.1 11 11 1017.4 0 23.7 28.4 46.4 122.1 121.1 418.2
08/05 06:10 17.7 71 10.71 12.4 9 9 1017.2 0 23.9 28.3 46.4 122.1 121.4 419.5
08/05 06:00 17.5 69 10.29 11.8 11 13 1017.1 0 23.0 27.7 44.8 117.9 116.1 400.8
08/05 05:50 17.8 66 10.02 11.4 11 13 1016.9 0 22.4 27.1 43.6 114.5 112.0 386.7
08/05 05:40 17.7 67 10.11 11.5 13 15 1016.8 0 22.6 27.3 44.0 115.6 113.4 391.3
08/05 05:30 17.7 67 10.11 11.5 13 17 1016.7 0 22.6 27.3 44.0 115.6 113.3 391.3
08/05 05:20 17.8 67 10.17 11.6 11 15 1016.5 0 22.7 27.4 44.1 116.1 114.0 393.5
08/05 05:10 18.3 65 10.16 11.6 13 15 1016.4 0 22.7 27.2 43.8 115.2 113.1 390.5
08/05 05:00 18.6 65 10.34 11.9 13 17 1016.3 0 23.0 27.4 44.4 116.7 115.0 397.2
08/05 04:50 18.6 65 10.34 11.9 15 17 1016.2 0 23.0 27.4 44.4 116.7 115.0 397.2
08/05 04:40 18.5 66 10.44 12 15 19 1016.2 0 23.3 27.6 44.8 117.9 116.5 402.3
08/05 04:30 18.3 70 10.94 12.7 15 17 1016.1 0 24.3 28.5 47.0 123.6 123.5 426.7
08/05 04:20 18.5 71 11.23 13.1 13 19 1016.1 0 24.9 28.9 48.0 126.5 127.1 439.3
08/05 04:10 18.3 73 11.41 13.4 11 11 1016.1 0 25.3 29.2 48.9 128.8 129.8 449.0
08/05 04:00 18.1 75 11.59 13.6 11 13 1016.1 0 25.7 29.6 49.8 131.1 132.7 458.8
08/05 03:50 18.2 75 11.66 13.7 11 13 1016 0 25.9 29.7 50.0 131.7 133.4 461.6
08/05 03:40 18.3 74 11.57 13.6 15 15 1016.1 0 25.7 29.5 49.6 130.6 132.0 456.7
08/05 03:30 18.6 73 11.62 13.7 13 17 1016.1 0 25.8 29.5 49.6 130.6 132.2 457.3
08/05 03:20 18.9 72 11.66 13.7 13 15 1016 0 25.8 29.5 49.6 130.6 132.2 457.4
08/05 03:10 19.3 70 11.61 13.7 17 19 1015.9 0 25.7 29.2 49.1 129.3 130.9 452.7
08/05 03:00 19.4 74 12.35 14.6 17 19 1015.8 0 27.3 30.4 52.1 137.4 140.8 487.6
08/05 02:50 19.5 77 12.92 15.4 15 17 1015.8 0 28.5 31.4 54.5 143.7 148.6 514.8
08/05 02:40 19.9 75 12.88 15.3 17 20 1015.9 0 28.4 31.2 54.1 142.5 147.3 510.2
08/05 02:30 20.4 72 12.74 15.2 19 24 1015.8 0 28.0 30.8 53.1 140.0 144.4 500.1
08/05 02:20 20.3 73 12.84 15.3 19 20 1015.7 0 28.2 31.0 53.6 141.3 146.0 505.6
08/05 02:10 20.3 79 13.89 16.5 17 19 1015.8 0 30.5 32.8 58.2 153.4 160.8 557.4
08/05 02:00 20 87 15.03 17.8 13 17 1015.7 0 32.9 35.0 63.5 167.6 178.2 617.9
08/05 01:50 19.2 94 15.5 18.2 11 13 1015.7 0 34.0 36.2 66.3 175.2 187.3 649.4
08/05 01:40 19.5 94 15.77 18.5 11 13 1015.7 0 34.6 36.5 67.3 177.9 190.7 661.2
08/05 01:30 19.7 94 15.96 18.7 13 13 1015.8 0 35.0 36.8 68.1 179.8 193.1 669.7
08/05 01:20 19.5 95 15.94 18.7 13 13 1015.8 0 34.9 36.9 68.2 180.0 193.3 670.4
08/05 01:10 19.4 95 15.85 18.6 11 13 1015.8 0 34.8 36.7 67.8 179.2 192.2 666.4
08/05 01:00 19.4 96 16.02 18.7 13 15 1015.9 0 35.1 37.1 68.6 181.3 194.8 675.6
08/05 00:50 19.1 97 15.9 18.6 13 15 1015.9 0 34.9 37.0 68.3 180.5 193.7 671.8
08/05 00:40 18.8 96 15.46 18.1 11 13 1015.9 0 34.0 36.3 66.5 175.7 187.7 650.8
08/05 00:30 18.9 95 15.39 18.1 11 13 1016 0 33.8 36.1 66.1 174.6 186.4 646.2
08/05 00:20 19.2 95 15.66 18.4 11 11 1016 0 34.4 36.5 67.1 177.3 189.8 658.1
08/05 00:10 19.5 96 16.11 18.8 13 15 1016 0 35.3 37.2 69.0 182.2 195.9 679.6
08/05 00:00 19.1 95 15.57 18.3 9 11 1016 0 34.2 36.4 66.8 176.4 188.6 654.1
07/05 23:50 19.5 95 15.94 18.7 9 11 1016 0 34.9 36.9 68.2 180.1 193.3 670.5
07/05 23:40 19.8 95 16.23 19 11 13 1016.1 0 35.5 37.3 69.3 183.0 197.0 683.4
07/05 23:30 20 94 16.24 19 11 13 1016.1 0 35.5 37.2 69.1 182.7 196.7 682.2
07/05 23:20 20.2 94 16.43 19.2 13 13 1016.2 0 35.9 37.5 69.9 184.6 199.1 690.6
07/05 23:10 20.4 94 16.63 19.4 13 15 1016.3 0 36.3 37.8 70.6 186.6 201.7 699.6
07/05 23:00 20.3 95 16.71 19.5 13 15 1016.2 0 36.5 38.0 71.1 187.9 203.2 704.9
07/05 22:50 19.9 95 16.32 19.1 13 15 1016.3 0 35.7 37.4 69.6 184.0 198.2 687.5
07/05 22:40 20.3 94 16.53 19.3 9 11 1016.4 0 36.1 37.7 70.3 185.6 200.4 695.2
07/05 22:30 20.4 95 16.8 19.6 11 13 1016.4 0 36.7 38.1 71.4 188.8 204.3 708.9
07/05 22:20 20.5 95 16.9 19.7 11 11 1016.4 0 36.9 38.3 71.8 189.8 205.6 713.4
07/05 22:10 20.5 96 17.08 19.8 13 15 1016.5 0 37.3 38.6 72.7 192.1 208.4 723.3
07/05 22:00 20.2 95 16.61 19.4 11 13 1016.5 0 36.3 37.9 70.7 186.9 201.9 700.5
07/05 21:50 20.1 95 16.51 19.3 9 11 1016.5 0 36.1 37.7 70.4 185.9 200.6 696.0
07/05 21:40 20.1 95 16.51 19.3 7 7 1016.6 0 36.1 37.7 70.4 185.9 200.6 696.1
07/05 21:30 20.1 94 16.34 19.1 9 11 1016.5 0 35.7 37.4 69.5 183.7 198.0 686.8
07/05 21:20 20.5 95 16.9 19.7 7 9 1016.6 0 36.9 38.3 71.8 189.9 205.6 713.5
07/05 21:10 20.6 95 17 19.8 9 9 1016.6 0 37.1 38.4 72.2 190.9 206.9 718.0
07/05 21:00 20.5 95 16.9 19.7 11 13 1016.6 0 36.9 38.3 71.8 189.9 205.6 713.5
07/05 20:50 20.5 94 16.72 19.5 11 11 1016.7 0 36.5 37.9 71.0 187.6 202.8 703.8
07/05 20:40 20.9 92 16.75 19.6 9 11 1016.6 0 36.5 37.8 70.8 187.0 202.2 701.6
07/05 20:30 22.5 92 18.37 21.1 9 9 1016.6 0 39.9 40.2 76.9 203.5 223.0 774.1
07/05 20:20 22.4 91 18.07 20.9 9 9 1016.6 0 39.2 39.6 75.6 199.9 218.5 758.7
07/05 20:10 22.5 91 18.17 21 11 13 1016.4 0 39.4 39.8 76.0 200.9 219.8 763.0
07/05 20:00 22.5 90 17.98 20.8 9 11 1016.3 0 39.0 39.4 75.0 198.4 216.8 752.6

Last Refresh: 08-May-2026 12:07:21

Bureau of Meteorology